createdAt,value
2023-08-15T00:03:13.946Z,100680.31
2023-08-15T00:08:17.185Z,100679.39
2023-08-15T00:13:20.398Z,100685.59
2023-08-15T00:18:23.527Z,100682.83
2023-08-15T00:23:26.636Z,100681.83
2023-08-15T00:28:29.796Z,100679.27
2023-08-15T00:33:34.816Z,100679.33
2023-08-15T00:38:37.849Z,100675.31
2023-08-15T00:43:40.982Z,100676.36
2023-08-15T00:48:44.292Z,100676.70
2023-08-15T00:53:48.236Z,100678.31
2023-08-15T00:58:51.433Z,100675.50
2023-08-15T01:03:55.477Z,100676.61
2023-08-15T01:09:02.394Z,100677.02
2023-08-15T01:14:12.504Z,100676.84
2023-08-15T01:19:31.193Z,100678.67
2023-08-15T01:24:35.084Z,100676.54
2023-08-15T01:29:38.400Z,100672.67
2023-08-15T01:34:54.919Z,100668.67
2023-08-15T01:40:02.515Z,100666.99
2023-08-15T01:45:08.984Z,100666.92
2023-08-15T01:50:12.166Z,100669.43
2023-08-15T01:55:15.454Z,100667.44
2023-08-15T02:00:18.552Z,100668.35
2023-08-15T02:05:22.246Z,100668.52
2023-08-15T02:10:25.419Z,100673.40
2023-08-15T02:15:28.660Z,100674.55
2023-08-15T02:20:33.262Z,100676.14
2023-08-15T02:25:36.462Z,100680.23
2023-08-15T02:30:39.636Z,100677.75
2023-08-15T02:35:43.131Z,100679.64
2023-08-15T02:40:46.216Z,100679.17
2023-08-15T02:45:49.455Z,100676.92
2023-08-15T02:50:52.665Z,100687.19
2023-08-15T02:55:55.844Z,100695.77
2023-08-15T03:00:59.040Z,100692.08
2023-08-15T03:06:03.345Z,100689.66
2023-08-15T03:11:06.534Z,100691.54
2023-08-15T03:16:09.745Z,100693.66
2023-08-15T03:21:13.042Z,100692.71
2023-08-15T03:26:16.773Z,100698.38
2023-08-15T03:31:22.633Z,100703.45
2023-08-15T03:36:29.196Z,100705.27
2023-08-15T03:41:32.712Z,100709.15
2023-08-15T03:46:36.097Z,100720.27
2023-08-15T03:51:47.037Z,100724.09
2023-08-15T03:56:51.185Z,100720.84
2023-08-15T04:01:56.177Z,100720.57
2023-08-15T04:07:01.325Z,100727.70
2023-08-15T04:12:05.289Z,100724.34
2023-08-15T04:17:08.577Z,100734.31
2023-08-15T04:22:11.773Z,100737.20
2023-08-15T04:27:15.100Z,100739.33
2023-08-15T04:32:18.728Z,100741.38
2023-08-15T04:37:22.188Z,100745.71
2023-08-15T04:42:25.727Z,100749.71
2023-08-15T04:47:28.836Z,100747.88
2023-08-15T04:52:31.921Z,100749.79
2023-08-15T04:57:36.531Z,100750.73
2023-08-15T05:02:40.416Z,100751.35
2023-08-15T05:07:43.804Z,100754.77
2023-08-15T05:12:47.031Z,100755.05
2023-08-15T05:17:51.365Z,100757.52
2023-08-15T05:22:54.668Z,100758.25
2023-08-15T05:27:58.280Z,100753.70
2023-08-15T05:33:01.776Z,100753.02
2023-08-15T05:38:05.120Z,100757.36
2023-08-15T05:43:08.415Z,100757.73
2023-08-15T05:48:12.429Z,100759.16
2023-08-15T05:53:15.828Z,100757.89
2023-08-15T05:58:19.684Z,100756.66
2023-08-15T06:03:39.747Z,100750.13
2023-08-15T06:08:46.247Z,100748.82
2023-08-15T06:13:49.291Z,100749.36
2023-08-15T06:18:52.366Z,100753.85
2023-08-15T06:23:55.434Z,100756.71
2023-08-15T06:28:58.519Z,100756.29
2023-08-15T06:34:03.528Z,100758.71
2023-08-15T06:39:06.862Z,100755.20
2023-08-15T06:44:10.173Z,100758.45
2023-08-15T06:49:13.277Z,100759.13
2023-08-15T06:54:16.445Z,100763.72
2023-08-15T06:59:21.466Z,100768.13
2023-08-15T07:04:24.803Z,100768.59
2023-08-15T07:09:29.525Z,100772.11
2023-08-15T07:14:33.437Z,100771.70
2023-08-15T07:19:36.654Z,100777.08
2023-08-15T07:24:42.235Z,100779.48
2023-08-15T07:29:46.082Z,100777.98
2023-08-15T07:34:49.284Z,100781.02
2023-08-15T07:39:59.362Z,100774.80
2023-08-15T07:45:04.045Z,100774.83
2023-08-15T07:50:17.014Z,100777.52
2023-08-15T07:55:25.581Z,100775.09
2023-08-15T08:00:28.999Z,100773.46
2023-08-15T08:05:34.283Z,100765.00
2023-08-15T08:10:37.858Z,100761.50
2023-08-15T08:15:40.976Z,100768.23
2023-08-15T08:20:44.271Z,100761.44
2023-08-15T08:25:47.558Z,100761.65
2023-08-15T08:30:50.636Z,100759.13
2023-08-15T08:35:53.767Z,100759.25
2023-08-15T08:40:57.052Z,100756.27
2023-08-15T08:46:01.338Z,100748.95
2023-08-15T08:51:06.594Z,100744.40
2023-08-15T08:56:10.260Z,100741.73
2023-08-15T09:01:15.085Z,100740.54
2023-08-15T09:06:18.536Z,100735.98
2023-08-15T09:11:21.865Z,100733.10
2023-08-15T09:16:25.189Z,100730.77
2023-08-15T09:21:28.694Z,100729.85
2023-08-15T09:26:36.214Z,100727.59
2023-08-15T09:31:40.074Z,100723.41
2023-08-15T09:36:43.272Z,100723.06
2023-08-15T09:41:49.302Z,100724.62
2023-08-15T09:46:52.533Z,100719.88
2023-08-15T09:52:01.077Z,100717.06
2023-08-15T09:57:04.454Z,100714.37
2023-08-15T10:02:24.215Z,100710.71
2023-08-15T10:07:30.672Z,100705.07
2023-08-15T10:12:37.436Z,100705.61
2023-08-15T10:17:41.182Z,100698.79
2023-08-15T10:22:44.383Z,100700.84
2023-08-15T10:27:53.039Z,100700.36
2023-08-15T10:32:59.946Z,100695.56
2023-08-15T10:38:14.528Z,100689.50
2023-08-15T10:43:18.111Z,100689.20
2023-08-15T10:48:41.103Z,100685.97
2023-08-15T10:53:52.128Z,100685.98
2023-08-15T10:58:56.454Z,100685.02
2023-08-15T11:03:59.770Z,100681.20
2023-08-15T11:09:06.402Z,100681.55
2023-08-15T11:14:20.280Z,100686.10
2023-08-15T11:19:24.014Z,100682.16
2023-08-15T11:24:34.515Z,100680.33
2023-08-15T11:29:37.707Z,100679.14
2023-08-15T11:34:41.081Z,100678.83
2023-08-15T11:39:54.345Z,100671.30
2023-08-15T11:45:09.608Z,100671.35
2023-08-15T11:50:13.071Z,100672.88
2023-08-15T11:55:16.210Z,100670.47
2023-08-15T12:00:20.564Z,100671.17
2023-08-15T12:05:23.709Z,100668.71
2023-08-15T12:10:27.020Z,100662.79
2023-08-15T12:15:30.341Z,100662.34
2023-08-15T12:20:33.692Z,100656.27
2023-08-15T12:25:36.902Z,100659.20
2023-08-15T12:30:40.451Z,100653.36
2023-08-15T12:35:45.419Z,100651.09
2023-08-15T12:40:48.662Z,100649.55
2023-08-15T12:45:51.719Z,100649.30
2023-08-15T12:50:54.987Z,100638.61
2023-08-15T12:55:58.375Z,100640.41
2023-08-15T13:01:01.967Z,100637.08
2023-08-15T13:06:05.261Z,100632.91
2023-08-15T13:11:08.749Z,100632.57
2023-08-15T13:16:12.627Z,100628.70
2023-08-15T13:21:15.867Z,100625.05
2023-08-15T13:26:21.934Z,100623.36
2023-08-15T13:31:25.183Z,100617.85
2023-08-15T13:36:28.474Z,100617.14
2023-08-15T13:41:32.249Z,100615.05
2023-08-15T13:46:35.845Z,100613.92
2023-08-15T13:51:40.104Z,100611.41
2023-08-15T13:56:44.831Z,100608.98
2023-08-15T14:01:48.199Z,100604.92
2023-08-15T14:06:51.554Z,100602.99
2023-08-15T14:11:54.721Z,100604.36
2023-08-15T14:16:58.004Z,100603.75
2023-08-15T14:22:01.324Z,100602.52
2023-08-15T14:27:04.797Z,100597.79
2023-08-15T14:32:08.126Z,100593.62
2023-08-15T14:37:13.944Z,100594.30
2023-08-15T14:42:17.253Z,100595.04
2023-08-15T14:47:29.500Z,100594.35
2023-08-15T14:52:32.933Z,100587.48
2023-08-15T14:57:36.163Z,100587.51
2023-08-15T15:02:39.588Z,100587.23
2023-08-15T15:07:43.200Z,100581.08
2023-08-15T15:12:46.776Z,100577.44
2023-08-15T15:17:50.055Z,100581.25
2023-08-15T15:22:53.718Z,100575.81
2023-08-15T15:27:57.078Z,100571.73
2023-08-15T15:33:00.280Z,100575.23
2023-08-15T15:38:03.629Z,100574.40
2023-08-15T15:43:06.876Z,100573.20
2023-08-15T15:48:10.124Z,100571.96
2023-08-15T15:53:13.404Z,100574.93
2023-08-15T15:58:16.687Z,100572.06
2023-08-15T16:03:20.000Z,100566.52
2023-08-15T16:08:23.294Z,100561.58
2023-08-15T16:13:26.665Z,100560.95
2023-08-15T16:18:29.938Z,100559.73
2023-08-15T16:23:33.091Z,100559.52
2023-08-15T16:28:36.314Z,100555.87
2023-08-15T16:33:39.430Z,100561.35
2023-08-15T16:38:42.599Z,100559.19
2023-08-15T16:43:45.767Z,100551.02
2023-08-15T16:48:49.243Z,100550.71
2023-08-15T16:53:52.921Z,100548.44
2023-08-15T16:58:56.084Z,100545.19
2023-08-15T17:03:59.483Z,100551.56
2023-08-15T17:09:03.070Z,100554.80
2023-08-15T17:14:06.821Z,100553.13
2023-08-15T17:19:10.003Z,100550.16
2023-08-15T17:24:22.156Z,100548.54
2023-08-15T17:29:25.281Z,100552.52
2023-08-15T17:34:44.257Z,100548.58
2023-08-15T17:39:47.577Z,100551.50
2023-08-15T17:45:00.250Z,100558.66
2023-08-15T17:50:03.683Z,100559.76
2023-08-15T17:55:07.107Z,100562.06
2023-08-15T18:00:10.907Z,100563.04
2023-08-15T18:05:15.405Z,100567.07
2023-08-15T18:10:18.637Z,100571.89
2023-08-15T18:15:21.962Z,100576.39
2023-08-15T18:20:25.218Z,100583.30
2023-08-15T18:25:28.359Z,100590.43
2023-08-15T18:30:32.377Z,100592.67
2023-08-15T18:35:35.711Z,100598.05
2023-08-15T18:40:41.601Z,100600.31
2023-08-15T18:45:45.809Z,100597.96
2023-08-15T18:50:49.222Z,100607.39
2023-08-15T18:55:52.382Z,100614.88
2023-08-15T19:00:55.666Z,100610.05
2023-08-15T19:05:58.881Z,100608.89
2023-08-15T19:11:02.325Z,100618.10
2023-08-15T19:16:05.562Z,100622.20
2023-08-15T19:21:08.871Z,100624.97
2023-08-15T19:26:12.260Z,100630.52
2023-08-15T19:31:15.937Z,100629.50
2023-08-15T19:36:19.057Z,100631.91
2023-08-15T19:41:22.366Z,100633.95
2023-08-15T19:46:25.567Z,100643.73
2023-08-15T19:51:28.728Z,100641.67
2023-08-15T19:56:31.956Z,100643.23
2023-08-15T20:01:35.158Z,100641.81
2023-08-15T20:06:39.088Z,100648.20
2023-08-15T20:11:42.286Z,100648.23
2023-08-15T20:16:48.399Z,100643.63
2023-08-15T20:21:51.969Z,100648.66
2023-08-15T20:26:55.185Z,100654.72
2023-08-15T20:31:58.478Z,100663.73
2023-08-15T20:37:01.737Z,100655.16
2023-08-15T20:42:05.057Z,100651.20
2023-08-15T20:47:08.390Z,100650.27
2023-08-15T20:52:11.559Z,100653.93
2023-08-15T20:57:15.312Z,100660.79
2023-08-15T21:02:18.506Z,100665.54
2023-08-15T21:07:55.411Z,100668.80
2023-08-15T21:13:01.136Z,100666.30
2023-08-15T21:18:04.346Z,100671.73
2023-08-15T21:23:19.364Z,100675.79
2023-08-15T21:28:22.425Z,100675.44
2023-08-15T21:33:56.154Z,100674.42
2023-08-15T21:38:59.142Z,100671.30
2023-08-15T21:44:02.431Z,100669.81
2023-08-15T21:49:08.668Z,100674.64
2023-08-15T21:54:14.683Z,100678.45
2023-08-15T21:59:17.780Z,100681.07
2023-08-15T22:04:21.140Z,100685.44
2023-08-15T22:09:24.919Z,100695.54
2023-08-15T22:14:29.015Z,100695.88
2023-08-15T22:19:32.114Z,100691.44
2023-08-15T22:24:57.350Z,100697.35
2023-08-15T22:30:09.054Z,100700.82
2023-08-15T22:35:12.249Z,100703.55
2023-08-15T22:40:15.400Z,100700.48
2023-08-15T22:45:18.490Z,100697.59
2023-08-15T22:50:21.611Z,100696.27
2023-08-15T22:55:24.833Z,100697.77
2023-08-15T23:00:28.009Z,100700.59
2023-08-15T23:05:32.603Z,100704.52
2023-08-15T23:10:35.761Z,100702.45
2023-08-15T23:15:38.886Z,100696.41
2023-08-15T23:20:42.224Z,100694.67
2023-08-15T23:25:45.449Z,100691.27
2023-08-15T23:30:49.713Z,100686.58
2023-08-15T23:35:52.996Z,100682.98
2023-08-15T23:40:56.421Z,100684.17
2023-08-15T23:45:59.541Z,100677.43
2023-08-15T23:51:02.725Z,100677.50
2023-08-15T23:56:05.815Z,100675.82
